Terminal Aerodrome Forecast
Issued by NWS

Home | Current Version | Previous Version | Graphics & Text | Print | Product List | Glossary On
Versions: 1 2 3 4 5 6 7 8 9 10 11 12 13 14 15 16 17 18 19 20 21
000
FTUS43 KICT 171503 AAA
TAFCNU
TAF AMD
KCNU 171503Z 1715/1812 08011KT P6SM VCTS BKN008 OVC030CB
      TEMPO 1715/1717 5SM -TSRA BKN015CB
     FM172100 07006KT P6SM VCTS BKN035CB
     FM180600 11004KT P6SM -SHRA OVC090
     FM181000 13005KT 6SM -SHRA BR BKN015
     FM181100 14004KT 5SM -SHRA BR BKN020=

USA.gov is the U.S. government's official web portal to all federal, state and local government web resources and services.